sensor_id;sensor_type;location;lat;lon;timestamp;P1;durP1;ratioP1;P2;durP2;ratioP2
18174;SDS011;9212;50.894;16.714;2023-04-25T00:02:16;3.60;;;1.93;;
18174;SDS011;9212;50.894;16.714;2023-04-25T00:04:44;2.30;;;1.90;;
18174;SDS011;9212;50.894;16.714;2023-04-25T00:07:15;4.63;;;1.87;;
18174;SDS011;9212;50.894;16.714;2023-04-25T00:09:42;2.60;;;1.70;;
18174;SDS011;9212;50.894;16.714;2023-04-25T00:12:09;3.53;;;2.17;;
18174;SDS011;9212;50.894;16.714;2023-04-25T00:14:37;2.00;;;1.90;;
18174;SDS011;9212;50.894;16.714;2023-04-25T00:17:04;1.83;;;1.73;;
18174;SDS011;9212;50.894;16.714;2023-04-25T00:19:31;1.80;;;1.70;;
18174;SDS011;9212;50.894;16.714;2023-04-25T00:21:59;1.90;;;1.80;;
18174;SDS011;9212;50.894;16.714;2023-04-25T00:24:28;2.13;;;1.57;;
18174;SDS011;9212;50.894;16.714;2023-04-25T00:26:55;3.47;;;2.03;;
18174;SDS011;9212;50.894;16.714;2023-04-25T00:29:22;2.17;;;1.97;;
18174;SDS011;9212;50.894;16.714;2023-04-25T00:31:49;2.20;;;1.77;;
18174;SDS011;9212;50.894;16.714;2023-04-25T00:34:16;2.30;;;2.10;;
18174;SDS011;9212;50.894;16.714;2023-04-25T00:36:44;2.90;;;1.83;;
18174;SDS011;9212;50.894;16.714;2023-04-25T00:39:11;2.73;;;1.70;;
18174;SDS011;9212;50.894;16.714;2023-04-25T00:41:39;1.80;;;1.70;;
18174;SDS011;9212;50.894;16.714;2023-04-25T00:44:08;2.77;;;1.73;;
18174;SDS011;9212;50.894;16.714;2023-04-25T00:46:36;1.93;;;1.80;;
18174;SDS011;9212;50.894;16.714;2023-04-25T00:49:03;1.97;;;1.77;;
18174;SDS011;9212;50.894;16.714;2023-04-25T00:51:31;2.77;;;2.10;;
18174;SDS011;9212;50.894;16.714;2023-04-25T00:53:59;2.47;;;2.20;;
18174;SDS011;9212;50.894;16.714;2023-04-25T00:56:26;3.10;;;2.50;;
18174;SDS011;9212;50.894;16.714;2023-04-25T00:58:55;3.30;;;2.30;;
18174;SDS011;9212;50.894;16.714;2023-04-25T01:01:23;2.60;;;2.40;;
18174;SDS011;9212;50.894;16.714;2023-04-25T01:03:50;2.80;;;2.30;;
18174;SDS011;9212;50.894;16.714;2023-04-25T01:06:18;2.57;;;2.17;;
18174;SDS011;9212;50.894;16.714;2023-04-25T01:08:47;2.67;;;2.47;;
18174;SDS011;9212;50.894;16.714;2023-04-25T01:11:14;2.40;;;2.20;;
18174;SDS011;9212;50.894;16.714;2023-04-25T01:13:41;2.50;;;2.20;;
18174;SDS011;9212;50.894;16.714;2023-04-25T01:16:10;3.83;;;2.40;;
18174;SDS011;9212;50.894;16.714;2023-04-25T01:18:38;3.47;;;2.43;;
18174;SDS011;9212;50.894;16.714;2023-04-25T01:21:08;3.00;;;2.40;;
18174;SDS011;9212;50.894;16.714;2023-04-25T01:23:35;4.33;;;2.57;;
18174;SDS011;9212;50.894;16.714;2023-04-25T01:26:03;2.53;;;2.23;;
18174;SDS011;9212;50.894;16.714;2023-04-25T01:28:31;2.80;;;2.60;;
18174;SDS011;9212;50.894;16.714;2023-04-25T01:30:59;3.03;;;2.73;;
18174;SDS011;9212;50.894;16.714;2023-04-25T01:33:27;3.63;;;2.50;;
18174;SDS011;9212;50.894;16.714;2023-04-25T01:35:54;2.50;;;2.30;;
18174;SDS011;9212;50.894;16.714;2023-04-25T01:38:23;2.77;;;2.43;;
18174;SDS011;9212;50.894;16.714;2023-04-25T01:40:50;5.83;;;2.60;;
18174;SDS011;9212;50.894;16.714;2023-04-25T01:43:18;3.03;;;2.37;;
18174;SDS011;9212;50.894;16.714;2023-04-25T01:45:45;3.80;;;2.87;;
18174;SDS011;9212;50.894;16.714;2023-04-25T01:48:13;2.40;;;2.17;;
18174;SDS011;9212;50.894;16.714;2023-04-25T01:50:40;4.47;;;2.63;;
18174;SDS011;9212;50.894;16.714;2023-04-25T01:53:08;2.90;;;2.60;;
18174;SDS011;9212;50.894;16.714;2023-04-25T01:55:38;3.10;;;2.77;;
18174;SDS011;9212;50.894;16.714;2023-04-25T01:58:05;3.47;;;2.37;;
18174;SDS011;9212;50.894;16.714;2023-04-25T02:00:34;2.80;;;2.53;;
18174;SDS011;9212;50.894;16.714;2023-04-25T02:03:03;2.73;;;2.53;;
18174;SDS011;9212;50.894;16.714;2023-04-25T02:05:33;3.37;;;2.50;;
18174;SDS011;9212;50.894;16.714;2023-04-25T02:08:01;2.67;;;2.47;;
18174;SDS011;9212;50.894;16.714;2023-04-25T02:10:29;3.13;;;2.60;;
18174;SDS011;9212;50.894;16.714;2023-04-25T02:12:58;3.33;;;2.73;;
18174;SDS011;9212;50.894;16.714;2023-04-25T02:15:25;4.27;;;2.87;;
18174;SDS011;9212;50.894;16.714;2023-04-25T02:17:52;4.63;;;2.87;;
18174;SDS011;9212;50.894;16.714;2023-04-25T02:20:20;3.17;;;2.87;;
18174;SDS011;9212;50.894;16.714;2023-04-25T02:22:48;5.00;;;2.80;;
18174;SDS011;9212;50.894;16.714;2023-04-25T02:25:15;4.67;;;3.13;;
18174;SDS011;9212;50.894;16.714;2023-04-25T02:27:44;3.10;;;2.80;;
18174;SDS011;9212;50.894;16.714;2023-04-25T02:30:13;4.03;;;2.60;;
18174;SDS011;9212;50.894;16.714;2023-04-25T02:32:40;3.40;;;2.90;;
18174;SDS011;9212;50.894;16.714;2023-04-25T02:35:07;4.47;;;2.90;;
18174;SDS011;9212;50.894;16.714;2023-04-25T02:37:35;4.73;;;3.07;;
18174;SDS011;9212;50.894;16.714;2023-04-25T02:40:04;3.53;;;2.90;;
18174;SDS011;9212;50.894;16.714;2023-04-25T02:42:33;5.13;;;2.90;;
18174;SDS011;9212;50.894;16.714;2023-04-25T02:45:00;5.50;;;2.60;;
18174;SDS011;9212;50.894;16.714;2023-04-25T02:47:29;3.27;;;2.97;;
18174;SDS011;9212;50.894;16.714;2023-04-25T02:49:56;4.43;;;3.07;;
18174;SDS011;9212;50.894;16.714;2023-04-25T02:52:24;3.47;;;2.67;;
18174;SDS011;9212;50.894;16.714;2023-04-25T02:54:51;5.43;;;3.80;;
18174;SDS011;9212;50.894;16.714;2023-04-25T02:57:18;4.30;;;3.20;;
18174;SDS011;9212;50.894;16.714;2023-04-25T02:59:46;3.30;;;2.93;;
18174;SDS011;9212;50.894;16.714;2023-04-25T03:02:13;5.57;;;2.73;;
18174;SDS011;9212;50.894;16.714;2023-04-25T03:04:42;6.33;;;3.30;;
18174;SDS011;9212;50.894;16.714;2023-04-25T03:07:09;4.40;;;3.27;;
18174;SDS011;9212;50.894;16.714;2023-04-25T03:09:37;3.37;;;2.57;;
18174;SDS011;9212;50.894;16.714;2023-04-25T03:12:04;5.33;;;2.80;;
18174;SDS011;9212;50.894;16.714;2023-04-25T03:14:32;3.03;;;2.73;;
18174;SDS011;9212;50.894;16.714;2023-04-25T03:16:59;4.03;;;3.10;;
18174;SDS011;9212;50.894;16.714;2023-04-25T03:19:26;3.90;;;2.87;;
18174;SDS011;9212;50.894;16.714;2023-04-25T03:21:55;4.30;;;3.07;;
18174;SDS011;9212;50.894;16.714;2023-04-25T03:24:22;2.93;;;2.63;;
18174;SDS011;9212;50.894;16.714;2023-04-25T03:26:49;4.33;;;2.97;;
18174;SDS011;9212;50.894;16.714;2023-04-25T03:29:16;3.10;;;2.60;;
18174;SDS011;9212;50.894;16.714;2023-04-25T03:31:44;3.10;;;2.57;;
18174;SDS011;9212;50.894;16.714;2023-04-25T03:34:11;3.10;;;2.77;;
18174;SDS011;9212;50.894;16.714;2023-04-25T03:36:39;3.27;;;2.50;;
18174;SDS011;9212;50.894;16.714;2023-04-25T03:39:08;3.23;;;2.63;;
18174;SDS011;9212;50.894;16.714;2023-04-25T03:41:35;2.70;;;2.50;;
18174;SDS011;9212;50.894;16.714;2023-04-25T03:44:02;2.80;;;2.60;;
18174;SDS011;9212;50.894;16.714;2023-04-25T03:46:29;3.57;;;2.67;;
18174;SDS011;9212;50.894;16.714;2023-04-25T03:48:57;3.67;;;2.60;;
18174;SDS011;9212;50.894;16.714;2023-04-25T03:51:24;7.07;;;2.90;;
18174;SDS011;9212;50.894;16.714;2023-04-25T03:53:51;5.53;;;3.00;;
18174;SDS011;9212;50.894;16.714;2023-04-25T03:56:20;2.93;;;2.60;;
18174;SDS011;9212;50.894;16.714;2023-04-25T03:58:47;5.87;;;2.93;;
18174;SDS011;9212;50.894;16.714;2023-04-25T04:01:14;4.63;;;2.83;;
18174;SDS011;9212;50.894;16.714;2023-04-25T04:03:41;3.30;;;2.87;;
18174;SDS011;9212;50.894;16.714;2023-04-25T04:06:08;4.20;;;2.83;;
18174;SDS011;9212;50.894;16.714;2023-04-25T04:08:35;3.60;;;2.73;;
18174;SDS011;9212;50.894;16.714;2023-04-25T04:11:02;3.10;;;2.73;;
18174;SDS011;9212;50.894;16.714;2023-04-25T04:13:31;4.87;;;3.10;;
18174;SDS011;9212;50.894;16.714;2023-04-25T04:15:58;3.13;;;2.83;;
18174;SDS011;9212;50.894;16.714;2023-04-25T04:18:25;6.50;;;3.50;;
18174;SDS011;9212;50.894;16.714;2023-04-25T04:20:52;8.33;;;3.20;;
18174;SDS011;9212;50.894;16.714;2023-04-25T04:23:19;4.17;;;3.00;;
18174;SDS011;9212;50.894;16.714;2023-04-25T04:25:47;6.53;;;3.40;;
18174;SDS011;9212;50.894;16.714;2023-04-25T04:28:15;4.50;;;3.03;;
18174;SDS011;9212;50.894;16.714;2023-04-25T04:30:44;7.40;;;3.53;;
18174;SDS011;9212;50.894;16.714;2023-04-25T04:33:12;5.27;;;3.20;;
18174;SDS011;9212;50.894;16.714;2023-04-25T04:35:40;7.57;;;3.70;;
18174;SDS011;9212;50.894;16.714;2023-04-25T04:38:07;5.90;;;4.13;;
18174;SDS011;9212;50.894;16.714;2023-04-25T04:40:35;8.27;;;4.67;;
18174;SDS011;9212;50.894;16.714;2023-04-25T04:43:03;4.97;;;4.33;;
18174;SDS011;9212;50.894;16.714;2023-04-25T04:45:30;6.67;;;4.10;;
18174;SDS011;9212;50.894;16.714;2023-04-25T04:48:02;7.10;;;3.47;;
18174;SDS011;9212;50.894;16.714;2023-04-25T04:50:30;4.43;;;3.50;;
18174;SDS011;9212;50.894;16.714;2023-04-25T04:52:59;4.37;;;3.60;;
18174;SDS011;9212;50.894;16.714;2023-04-25T04:55:26;4.03;;;3.03;;
18174;SDS011;9212;50.894;16.714;2023-04-25T04:57:53;5.63;;;3.97;;
18174;SDS011;9212;50.894;16.714;2023-04-25T05:00:20;6.60;;;3.63;;
18174;SDS011;9212;50.894;16.714;2023-04-25T05:02:47;6.67;;;3.63;;
18174;SDS011;9212;50.894;16.714;2023-04-25T05:05:16;8.10;;;3.90;;
18174;SDS011;9212;50.894;16.714;2023-04-25T05:07:43;5.93;;;4.10;;
18174;SDS011;9212;50.894;16.714;2023-04-25T05:10:10;4.43;;;3.80;;
18174;SDS011;9212;50.894;16.714;2023-04-25T05:12:37;5.10;;;3.37;;
18174;SDS011;9212;50.894;16.714;2023-04-25T05:15:05;4.23;;;3.50;;
18174;SDS011;9212;50.894;16.714;2023-04-25T05:17:33;4.07;;;3.63;;
18174;SDS011;9212;50.894;16.714;2023-04-25T05:20:00;3.53;;;3.20;;
18174;SDS011;9212;50.894;16.714;2023-04-25T05:22:29;5.33;;;3.27;;
18174;SDS011;9212;50.894;16.714;2023-04-25T05:24:56;7.60;;;3.70;;
18174;SDS011;9212;50.894;16.714;2023-04-25T05:27:23;5.20;;;3.77;;
18174;SDS011;9212;50.894;16.714;2023-04-25T05:29:50;4.30;;;3.00;;
18174;SDS011;9212;50.894;16.714;2023-04-25T05:32:18;4.97;;;3.03;;
18174;SDS011;9212;50.894;16.714;2023-04-25T05:34:45;3.40;;;3.10;;
18174;SDS011;9212;50.894;16.714;2023-04-25T05:37:12;4.57;;;3.50;;
18174;SDS011;9212;50.894;16.714;2023-04-25T05:39:41;13.07;;;3.30;;
18174;SDS011;9212;50.894;16.714;2023-04-25T05:42:08;6.63;;;3.23;;
18174;SDS011;9212;50.894;16.714;2023-04-25T05:44:35;4.20;;;2.90;;
18174;SDS011;9212;50.894;16.714;2023-04-25T05:47:02;4.23;;;2.70;;
18174;SDS011;9212;50.894;16.714;2023-04-25T05:49:30;4.43;;;3.37;;
18174;SDS011;9212;50.894;16.714;2023-04-25T05:51:57;4.37;;;3.30;;
18174;SDS011;9212;50.894;16.714;2023-04-25T05:54:24;5.53;;;2.80;;
18174;SDS011;9212;50.894;16.714;2023-04-25T05:56:53;6.10;;;3.23;;
18174;SDS011;9212;50.894;16.714;2023-04-25T05:59:20;6.83;;;3.33;;
18174;SDS011;9212;50.894;16.714;2023-04-25T06:01:47;4.43;;;3.17;;
18174;SDS011;9212;50.894;16.714;2023-04-25T06:04:14;6.03;;;2.60;;
18174;SDS011;9212;50.894;16.714;2023-04-25T06:06:41;7.53;;;3.27;;
18174;SDS011;9212;50.894;16.714;2023-04-25T06:09:08;7.37;;;3.63;;
18174;SDS011;9212;50.894;16.714;2023-04-25T06:11:35;7.23;;;3.77;;
18174;SDS011;9212;50.894;16.714;2023-04-25T06:14:04;8.93;;;3.73;;
18174;SDS011;9212;50.894;16.714;2023-04-25T06:16:31;7.70;;;3.97;;
18174;SDS011;9212;50.894;16.714;2023-04-25T06:18:58;6.47;;;3.40;;
18174;SDS011;9212;50.894;16.714;2023-04-25T06:21:26;5.77;;;3.27;;
18174;SDS011;9212;50.894;16.714;2023-04-25T06:23:53;6.50;;;3.77;;
18174;SDS011;9212;50.894;16.714;2023-04-25T06:26:20;4.97;;;3.17;;
18174;SDS011;9212;50.894;16.714;2023-04-25T06:28:48;7.70;;;2.83;;
18174;SDS011;9212;50.894;16.714;2023-04-25T06:31:16;3.80;;;3.07;;
18174;SDS011;9212;50.894;16.714;2023-04-25T06:33:44;7.17;;;2.73;;
18174;SDS011;9212;50.894;16.714;2023-04-25T06:36:11;12.33;;;4.07;;
18174;SDS011;9212;50.894;16.714;2023-04-25T06:38:38;3.73;;;2.83;;
18174;SDS011;9212;50.894;16.714;2023-04-25T06:41:05;5.20;;;3.40;;
18174;SDS011;9212;50.894;16.714;2023-04-25T06:43:33;5.73;;;3.30;;
18174;SDS011;9212;50.894;16.714;2023-04-25T06:46:00;8.47;;;4.00;;
18174;SDS011;9212;50.894;16.714;2023-04-25T06:48:29;4.10;;;3.40;;
18174;SDS011;9212;50.894;16.714;2023-04-25T06:50:56;4.33;;;3.60;;
18174;SDS011;9212;50.894;16.714;2023-04-25T06:53:23;4.33;;;3.27;;
18174;SDS011;9212;50.894;16.714;2023-04-25T06:55:51;6.13;;;3.27;;
18174;SDS011;9212;50.894;16.714;2023-04-25T06:58:18;6.10;;;3.70;;
18174;SDS011;9212;50.894;16.714;2023-04-25T07:00:46;8.07;;;4.43;;
18174;SDS011;9212;50.894;16.714;2023-04-25T07:03:13;8.23;;;3.70;;
18174;SDS011;9212;50.894;16.714;2023-04-25T07:05:42;5.10;;;3.40;;
18174;SDS011;9212;50.894;16.714;2023-04-25T07:08:10;5.60;;;2.93;;
18174;SDS011;9212;50.894;16.714;2023-04-25T07:10:38;7.17;;;3.10;;
18174;SDS011;9212;50.894;16.714;2023-04-25T07:13:08;6.80;;;3.23;;
18174;SDS011;9212;50.894;16.714;2023-04-25T07:15:36;6.30;;;3.30;;
18174;SDS011;9212;50.894;16.714;2023-04-25T07:18:04;7.50;;;3.10;;
18174;SDS011;9212;50.894;16.714;2023-04-25T07:20:32;7.00;;;3.42;;
18174;SDS011;9212;50.894;16.714;2023-04-25T07:23:00;8.07;;;3.80;;
18174;SDS011;9212;50.894;16.714;2023-04-25T07:25:27;9.30;;;3.60;;
18174;SDS011;9212;50.894;16.714;2023-04-25T07:27:55;9.27;;;3.47;;
18174;SDS011;9212;50.894;16.714;2023-04-25T07:30:22;5.82;;;3.53;;
18174;SDS011;9212;50.894;16.714;2023-04-25T07:32:50;5.28;;;3.33;;
18174;SDS011;9212;50.894;16.714;2023-04-25T07:35:17;5.72;;;3.90;;
18174;SDS011;9212;50.894;16.714;2023-04-25T07:37:45;6.25;;;3.58;;
18174;SDS011;9212;50.894;16.714;2023-04-25T07:40:14;7.28;;;3.63;;
18174;SDS011;9212;50.894;16.714;2023-04-25T07:42:42;9.18;;;3.60;;
18174;SDS011;9212;50.894;16.714;2023-04-25T07:45:09;8.25;;;4.18;;
18174;SDS011;9212;50.894;16.714;2023-04-25T07:47:37;12.15;;;5.10;;
18174;SDS011;9212;50.894;16.714;2023-04-25T07:50:05;8.63;;;4.40;;
18174;SDS011;9212;50.894;16.714;2023-04-25T07:52:32;8.90;;;4.15;;
18174;SDS011;9212;50.894;16.714;2023-04-25T07:54:59;5.97;;;4.15;;
18174;SDS011;9212;50.894;16.714;2023-04-25T07:57:28;5.18;;;4.20;;
18174;SDS011;9212;50.894;16.714;2023-04-25T07:59:57;9.40;;;4.38;;
18174;SDS011;9212;50.894;16.714;2023-04-25T08:02:25;8.02;;;4.45;;
18174;SDS011;9212;50.894;16.714;2023-04-25T08:04:53;8.02;;;4.63;;
18174;SDS011;9212;50.894;16.714;2023-04-25T08:07:20;6.75;;;4.28;;
18174;SDS011;9212;50.894;16.714;2023-04-25T08:09:48;6.00;;;3.92;;
18174;SDS011;9212;50.894;16.714;2023-04-25T08:12:15;8.23;;;4.22;;
18174;SDS011;9212;50.894;16.714;2023-04-25T08:14:44;6.20;;;3.80;;
18174;SDS011;9212;50.894;16.714;2023-04-25T08:17:11;7.53;;;4.32;;
18174;SDS011;9212;50.894;16.714;2023-04-25T08:19:38;14.10;;;4.85;;
18174;SDS011;9212;50.894;16.714;2023-04-25T08:22:05;5.18;;;3.90;;
18174;SDS011;9212;50.894;16.714;2023-04-25T08:24:33;7.43;;;3.80;;
18174;SDS011;9212;50.894;16.714;2023-04-25T08:27:00;8.57;;;3.87;;
18174;SDS011;9212;50.894;16.714;2023-04-25T08:29:28;8.70;;;3.95;;
18174;SDS011;9212;50.894;16.714;2023-04-25T08:31:56;6.03;;;3.73;;
18174;SDS011;9212;50.894;16.714;2023-04-25T08:34:23;8.93;;;4.03;;
18174;SDS011;9212;50.894;16.714;2023-04-25T08:36:51;4.63;;;3.85;;
18174;SDS011;9212;50.894;16.714;2023-04-25T08:39:18;8.15;;;3.63;;
18174;SDS011;9212;50.894;16.714;2023-04-25T08:41:46;8.70;;;3.90;;
18174;SDS011;9212;50.894;16.714;2023-04-25T08:44:13;5.82;;;3.95;;
18174;SDS011;9212;50.894;16.714;2023-04-25T08:46:42;5.07;;;3.92;;
18174;SDS011;9212;50.894;16.714;2023-04-25T08:49:16;9.50;;;4.13;;
18174;SDS011;9212;50.894;16.714;2023-04-25T08:51:44;5.18;;;3.75;;
18174;SDS011;9212;50.894;16.714;2023-04-25T08:54:13;9.43;;;4.65;;
18174;SDS011;9212;50.894;16.714;2023-04-25T08:56:41;5.70;;;3.90;;
18174;SDS011;9212;50.894;16.714;2023-04-25T08:59:11;5.50;;;3.90;;
18174;SDS011;9212;50.894;16.714;2023-04-25T09:01:38;8.80;;;3.75;;
18174;SDS011;9212;50.894;16.714;2023-04-25T09:04:06;5.55;;;3.63;;
18174;SDS011;9212;50.894;16.714;2023-04-25T09:06:34;5.88;;;4.45;;
18174;SDS011;9212;50.894;16.714;2023-04-25T09:09:02;5.13;;;3.83;;
18174;SDS011;9212;50.894;16.714;2023-04-25T09:11:31;4.60;;;4.00;;
18174;SDS011;9212;50.894;16.714;2023-04-25T09:14:11;7.10;;;3.93;;
18174;SDS011;9212;50.894;16.714;2023-04-25T09:17:01;6.38;;;4.10;;
18174;SDS011;9212;50.894;16.714;2023-04-25T09:19:30;6.47;;;4.28;;
18174;SDS011;9212;50.894;16.714;2023-04-25T09:22:02;4.80;;;3.72;;
18174;SDS011;9212;50.894;16.714;2023-04-25T09:24:34;9.82;;;4.15;;
18174;SDS011;9212;50.894;16.714;2023-04-25T09:27:03;9.00;;;4.13;;
18174;SDS011;9212;50.894;16.714;2023-04-25T09:29:31;6.30;;;3.83;;
18174;SDS011;9212;50.894;16.714;2023-04-25T09:32:15;4.97;;;3.70;;
18174;SDS011;9212;50.894;16.714;2023-04-25T09:34:46;8.02;;;4.32;;
18174;SDS011;9212;50.894;16.714;2023-04-25T09:37:19;7.00;;;3.78;;
18174;SDS011;9212;50.894;16.714;2023-04-25T09:39:48;6.03;;;3.47;;
18174;SDS011;9212;50.894;16.714;2023-04-25T09:42:16;8.73;;;4.22;;
18174;SDS011;9212;50.894;16.714;2023-04-25T09:44:44;5.45;;;4.43;;
18174;SDS011;9212;50.894;16.714;2023-04-25T09:47:12;6.28;;;3.08;;
18174;SDS011;9212;50.894;16.714;2023-04-25T09:49:41;5.43;;;3.38;;
18174;SDS011;9212;50.894;16.714;2023-04-25T09:52:09;5.28;;;3.00;;
18174;SDS011;9212;50.894;16.714;2023-04-25T09:54:41;4.65;;;3.63;;
18174;SDS011;9212;50.894;16.714;2023-04-25T09:57:10;3.50;;;3.20;;
18174;SDS011;9212;50.894;16.714;2023-04-25T09:59:39;6.47;;;3.08;;
18174;SDS011;9212;50.894;16.714;2023-04-25T10:02:09;3.22;;;2.33;;
18174;SDS011;9212;50.894;16.714;2023-04-25T10:04:38;3.80;;;2.30;;
18174;SDS011;9212;50.894;16.714;2023-04-25T10:07:06;2.60;;;2.25;;
18174;SDS011;9212;50.894;16.714;2023-04-25T10:09:35;5.40;;;2.30;;
18174;SDS011;9212;50.894;16.714;2023-04-25T10:12:06;1.77;;;1.67;;
18174;SDS011;9212;50.894;16.714;2023-04-25T10:14:34;3.47;;;1.95;;
18174;SDS011;9212;50.894;16.714;2023-04-25T10:17:01;2.05;;;1.75;;
18174;SDS011;9212;50.894;16.714;2023-04-25T10:19:28;3.42;;;2.05;;
18174;SDS011;9212;50.894;16.714;2023-04-25T10:21:58;4.10;;;1.80;;
18174;SDS011;9212;50.894;16.714;2023-04-25T10:24:30;2.42;;;2.05;;
18174;SDS011;9212;50.894;16.714;2023-04-25T10:26:58;5.53;;;1.77;;
18174;SDS011;9212;50.894;16.714;2023-04-25T10:29:28;2.80;;;1.73;;
18174;SDS011;9212;50.894;16.714;2023-04-25T10:31:55;4.72;;;1.92;;
18174;SDS011;9212;50.894;16.714;2023-04-25T10:34:24;2.83;;;1.65;;
18174;SDS011;9212;50.894;16.714;2023-04-25T10:37:03;5.70;;;3.92;;
18174;SDS011;9212;50.894;16.714;2023-04-25T10:39:32;8.38;;;3.25;;
18174;SDS011;9212;50.894;16.714;2023-04-25T10:41:59;3.15;;;1.90;;
18174;SDS011;9212;50.894;16.714;2023-04-25T10:44:30;5.78;;;1.95;;
18174;SDS011;9212;50.894;16.714;2023-04-25T10:46:58;1.98;;;1.65;;
18174;SDS011;9212;50.894;16.714;2023-04-25T10:49:30;2.83;;;1.83;;
18174;SDS011;9212;50.894;16.714;2023-04-25T10:54:52;4.05;;;1.60;;
18174;SDS011;9212;50.894;16.714;2023-04-25T10:57:30;3.22;;;1.63;;
18174;SDS011;9212;50.894;16.714;2023-04-25T11:00:06;5.55;;;1.90;;
18174;SDS011;9212;50.894;16.714;2023-04-25T11:02:42;3.45;;;2.10;;
18174;SDS011;9212;50.894;16.714;2023-04-25T11:05:15;4.30;;;1.90;;
18174;SDS011;9212;50.894;16.714;2023-04-25T11:07:49;1.55;;;1.38;;
18174;SDS011;9212;50.894;16.714;2023-04-25T11:10:17;4.05;;;2.05;;
18174;SDS011;9212;50.894;16.714;2023-04-25T11:12:45;4.03;;;1.80;;
18174;SDS011;9212;50.894;16.714;2023-04-25T11:15:14;2.38;;;1.52;;
18174;SDS011;9212;50.894;16.714;2023-04-25T11:17:41;2.10;;;1.33;;
18174;SDS011;9212;50.894;16.714;2023-04-25T11:20:10;2.47;;;1.77;;
18174;SDS011;9212;50.894;16.714;2023-04-25T11:22:39;4.28;;;2.28;;
18174;SDS011;9212;50.894;16.714;2023-04-25T11:25:07;7.80;;;2.63;;
18174;SDS011;9212;50.894;16.714;2023-04-25T11:27:37;3.20;;;2.10;;
18174;SDS011;9212;50.894;16.714;2023-04-25T11:30:09;4.47;;;1.83;;
18174;SDS011;9212;50.894;16.714;2023-04-25T11:32:40;1.38;;;1.30;;
18174;SDS011;9212;50.894;16.714;2023-04-25T11:35:08;2.13;;;1.40;;
18174;SDS011;9212;50.894;16.714;2023-04-25T11:37:36;2.45;;;1.35;;
18174;SDS011;9212;50.894;16.714;2023-04-25T11:40:03;3.70;;;1.08;;
18174;SDS011;9212;50.894;16.714;2023-04-25T11:42:34;2.53;;;1.20;;
18174;SDS011;9212;50.894;16.714;2023-04-25T11:45:01;3.78;;;1.70;;
18174;SDS011;9212;50.894;16.714;2023-04-25T11:47:30;1.45;;;1.35;;
18174;SDS011;9212;50.894;16.714;2023-04-25T11:49:59;6.60;;;1.60;;
18174;SDS011;9212;50.894;16.714;2023-04-25T11:52:35;3.53;;;1.52;;
18174;SDS011;9212;50.894;16.714;2023-04-25T11:55:04;3.75;;;1.38;;
18174;SDS011;9212;50.894;16.714;2023-04-25T11:57:32;1.70;;;1.33;;
18174;SDS011;9212;50.894;16.714;2023-04-25T12:00:07;1.27;;;1.27;;
18174;SDS011;9212;50.894;16.714;2023-04-25T12:02:36;2.05;;;1.40;;
18174;SDS011;9212;50.894;16.714;2023-04-25T12:05:07;1.60;;;1.50;;
18174;SDS011;9212;50.894;16.714;2023-04-25T12:07:34;1.40;;;1.25;;
18174;SDS011;9212;50.894;16.714;2023-04-25T12:10:06;2.25;;;1.55;;
18174;SDS011;9212;50.894;16.714;2023-04-25T12:12:34;2.92;;;1.70;;
18174;SDS011;9212;50.894;16.714;2023-04-25T12:15:08;5.97;;;1.50;;
18174;SDS011;9212;50.894;16.714;2023-04-25T12:17:36;4.28;;;1.30;;
18174;SDS011;9212;50.894;16.714;2023-04-25T12:20:09;4.32;;;1.55;;
18174;SDS011;9212;50.894;16.714;2023-04-25T12:22:38;2.70;;;1.45;;
18174;SDS011;9212;50.894;16.714;2023-04-25T12:25:09;2.30;;;1.30;;
18174;SDS011;9212;50.894;16.714;2023-04-25T12:27:37;2.45;;;1.25;;
18174;SDS011;9212;50.894;16.714;2023-04-25T12:30:07;2.17;;;1.40;;
18174;SDS011;9212;50.894;16.714;2023-04-25T12:32:35;1.30;;;1.20;;
18174;SDS011;9212;50.894;16.714;2023-04-25T12:35:03;9.02;;;1.70;;
18174;SDS011;9212;50.894;16.714;2023-04-25T12:37:32;1.50;;;1.40;;
18174;SDS011;9212;50.894;16.714;2023-04-25T12:40:00;2.17;;;1.50;;
18174;SDS011;9212;50.894;16.714;2023-04-25T12:42:29;3.58;;;1.70;;
18174;SDS011;9212;50.894;16.714;2023-04-25T12:44:56;2.63;;;1.50;;
18174;SDS011;9212;50.894;16.714;2023-04-25T12:47:23;2.65;;;1.45;;
18174;SDS011;9212;50.894;16.714;2023-04-25T12:49:50;2.42;;;1.30;;
18174;SDS011;9212;50.894;16.714;2023-04-25T12:52:17;3.28;;;1.45;;
18174;SDS011;9212;50.894;16.714;2023-04-25T12:54:45;2.78;;;1.60;;
18174;SDS011;9212;50.894;16.714;2023-04-25T12:57:12;2.17;;;1.50;;
18174;SDS011;9212;50.894;16.714;2023-04-25T12:59:39;2.15;;;1.90;;
18174;SDS011;9212;50.894;16.714;2023-04-25T13:02:06;2.40;;;1.48;;
18174;SDS011;9212;50.894;16.714;2023-04-25T13:04:34;2.10;;;1.85;;
18174;SDS011;9212;50.894;16.714;2023-04-25T13:07:01;3.95;;;1.73;;
18174;SDS011;9212;50.894;16.714;2023-04-25T13:09:28;4.07;;;1.95;;
18174;SDS011;9212;50.894;16.714;2023-04-25T13:11:57;2.65;;;1.80;;
18174;SDS011;9212;50.894;16.714;2023-04-25T13:14:24;1.75;;;1.63;;
18174;SDS011;9212;50.894;16.714;2023-04-25T13:16:51;2.78;;;2.20;;
18174;SDS011;9212;50.894;16.714;2023-04-25T13:19:19;3.30;;;1.67;;
18174;SDS011;9212;50.894;16.714;2023-04-25T13:21:46;2.95;;;1.77;;
18174;SDS011;9212;50.894;16.714;2023-04-25T13:24:13;2.78;;;1.80;;
18174;SDS011;9212;50.894;16.714;2023-04-25T13:26:40;3.55;;;1.92;;
18174;SDS011;9212;50.894;16.714;2023-04-25T13:29:09;5.65;;;2.33;;
18174;SDS011;9212;50.894;16.714;2023-04-25T13:31:36;6.18;;;2.17;;
18174;SDS011;9212;50.894;16.714;2023-04-25T13:34:03;3.28;;;2.25;;
18174;SDS011;9212;50.894;16.714;2023-04-25T13:36:30;5.05;;;2.38;;
18174;SDS011;9212;50.894;16.714;2023-04-25T13:38:58;3.92;;;2.03;;
18174;SDS011;9212;50.894;16.714;2023-04-25T13:41:25;7.63;;;2.22;;
18174;SDS011;9212;50.894;16.714;2023-04-25T13:43:52;3.75;;;2.25;;
18174;SDS011;9212;50.894;16.714;2023-04-25T13:46:20;3.85;;;1.80;;
18174;SDS011;9212;50.894;16.714;2023-04-25T13:48:48;5.13;;;1.98;;
18174;SDS011;9212;50.894;16.714;2023-04-25T13:51:15;2.03;;;1.67;;
18174;SDS011;9212;50.894;16.714;2023-04-25T13:53:43;10.25;;;2.05;;
18174;SDS011;9212;50.894;16.714;2023-04-25T13:56:10;6.80;;;2.53;;
18174;SDS011;9212;50.894;16.714;2023-04-25T13:58:37;6.65;;;1.98;;
18174;SDS011;9212;50.894;16.714;2023-04-25T14:01:05;3.30;;;2.07;;
18174;SDS011;9212;50.894;16.714;2023-04-25T14:03:34;2.45;;;1.98;;
18174;SDS011;9212;50.894;16.714;2023-04-25T14:06:01;2.53;;;2.15;;
18174;SDS011;9212;50.894;16.714;2023-04-25T14:08:29;4.73;;;2.77;;
18174;SDS011;9212;50.894;16.714;2023-04-25T14:10:56;11.60;;;2.70;;
18174;SDS011;9212;50.894;16.714;2023-04-25T14:13:23;5.60;;;2.40;;
18174;SDS011;9212;50.894;16.714;2023-04-25T14:15:51;4.20;;;2.10;;
18174;SDS011;9212;50.894;16.714;2023-04-25T14:18:18;5.65;;;2.88;;
18174;SDS011;9212;50.894;16.714;2023-04-25T14:20:46;11.53;;;2.77;;
18174;SDS011;9212;50.894;16.714;2023-04-25T14:23:14;7.37;;;2.63;;
18174;SDS011;9212;50.894;16.714;2023-04-25T14:25:42;7.43;;;2.93;;
18174;SDS011;9212;50.894;16.714;2023-04-25T14:28:09;7.57;;;2.00;;
18174;SDS011;9212;50.894;16.714;2023-04-25T14:30:37;7.03;;;2.57;;
18174;SDS011;9212;50.894;16.714;2023-04-25T14:33:03;6.00;;;2.23;;
18174;SDS011;9212;50.894;16.714;2023-04-25T14:35:31;2.97;;;2.30;;
18174;SDS011;9212;50.894;16.714;2023-04-25T14:37:59;4.77;;;2.07;;
18174;SDS011;9212;50.894;16.714;2023-04-25T14:40:26;14.27;;;2.43;;
18174;SDS011;9212;50.894;16.714;2023-04-25T14:42:53;7.53;;;2.10;;
18174;SDS011;9212;50.894;16.714;2023-04-25T14:45:20;3.67;;;2.07;;
18174;SDS011;9212;50.894;16.714;2023-04-25T14:47:47;12.70;;;2.60;;
18174;SDS011;9212;50.894;16.714;2023-04-25T14:50:15;7.83;;;2.40;;
18174;SDS011;9212;50.894;16.714;2023-04-25T14:52:41;5.87;;;2.40;;
18174;SDS011;9212;50.894;16.714;2023-04-25T14:55:11;9.37;;;2.60;;
18174;SDS011;9212;50.894;16.714;2023-04-25T14:57:39;5.70;;;2.40;;